Time;durP1;ratioP1;P1;durP2;ratioP2;P2;SDS_P1;SDS_P2;PMS_P1;PMS_P2;Temp;Humidity;BMP_temperature;BMP_pressure;BME280_temperature;BME280_humidity;BME280_pressure;Samples;Min_cycle;Max_cycle;Signal;HPM_P1;HPM_P2
2023/07/09 00:01:20;;;;;;;5.25;3.10;;;;;;;20.46;48.19;101371.59;5027864;28;20045;-57
2023/07/09 00:03:51;;;;;;;5.35;3.22;;;;;;;20.45;48.33;101372.56;5025682;28;20167;-58
2023/07/09 00:06:19;;;;;;;7.05;2.95;;;;;;;20.42;48.18;101372.84;5019977;28;20057;-58
2023/07/09 00:08:49;;;;;;;5.25;2.65;;;;;;;20.41;48.08;101379.19;5024792;28;20061;-58
2023/07/09 00:11:16;;;;;;;6.20;3.45;;;;;;;20.40;48.26;101378.34;5025009;28;20502;-58
2023/07/09 00:13:44;;;;;;;3.83;2.50;;;;;;;20.37;48.41;101370.56;5024764;28;20081;-56
2023/07/09 00:16:22;;;;;;;4.68;2.40;;;;;;;20.37;48.44;101381.25;5024775;28;20133;-57
2023/07/09 00:18:50;;;;;;;8.68;3.22;;;;;;;20.37;48.64;101372.41;5025388;28;20084;-60
2023/07/09 00:21:20;;;;;;;6.60;2.85;;;;;;;20.36;48.63;101374.22;5025635;28;20699;-56
2023/07/09 00:23:48;;;;;;;5.85;2.40;;;;;;;20.36;48.20;101371.56;5017035;28;20137;-59
2023/07/09 00:26:17;;;;;;;4.07;2.70;;;;;;;20.36;48.29;101371.56;5018089;28;20382;-59
2023/07/09 00:28:45;;;;;;;9.85;3.00;;;;;;;20.35;48.43;101369.84;5021118;28;20049;-57
2023/07/09 00:31:16;;;;;;;7.30;2.90;;;;;;;20.34;48.86;101364.63;5021555;28;20052;-55
2023/07/09 00:33:45;;;;;;;4.22;3.00;;;;;;;20.31;49.13;101367.56;5039454;28;20079;-56
2023/07/09 00:36:26;;;;;;;7.50;3.13;;;;;;;20.28;49.40;101362.53;5040824;28;20046;-56
2023/07/09 00:38:54;;;;;;;4.80;3.15;;;;;;;20.24;48.96;101367.28;5026827;28;20057;-58
2023/07/09 00:41:23;;;;;;;4.40;2.47;;;;;;;20.24;49.20;101359.25;5023118;28;20105;-57
2023/07/09 00:43:51;;;;;;;4.00;2.80;;;;;;;20.23;49.27;101355.75;5022201;28;20184;-57
2023/07/09 00:46:26;;;;;;;4.93;3.00;;;;;;;20.21;49.44;101349.66;5024444;28;20055;-60
2023/07/09 00:48:59;;;;;;;6.32;2.78;;;;;;;20.21;49.55;101347.00;5018020;28;20538;-57
2023/07/09 00:51:27;;;;;;;4.10;2.90;;;;;;;20.18;49.75;101347.28;5021915;28;20103;-56
2023/07/09 00:53:58;;;;;;;10.65;3.22;;;;;;;20.16;49.67;101351.91;5019471;28;20046;-56
2023/07/09 00:56:33;;;;;;;7.07;3.15;;;;;;;20.14;49.51;101345.88;5018889;28;20068;-57
2023/07/09 00:59:04;;;;;;;3.63;2.50;;;;;;;20.13;49.50;101346.00;5019627;28;20132;-58
2023/07/09 01:01:34;;;;;;;9.68;3.25;;;;;;;20.10;50.22;101349.78;5023256;28;20065;-58
2023/07/09 01:04:03;;;;;;;4.78;3.35;;;;;;;20.08;50.08;101333.00;5023067;28;20099;-57
2023/07/09 01:06:36;;;;;;;4.97;2.80;;;;;;;20.07;50.17;101338.50;5014436;28;20569;-58
2023/07/09 01:09:04;;;;;;;4.78;2.90;;;;;;;20.04;50.18;101331.63;5019066;28;20493;-56
2023/07/09 01:11:32;;;;;;;6.07;3.08;;;;;;;20.06;50.32;101344.84;5015587;28;20141;-57
2023/07/09 01:14:05;;;;;;;4.72;3.00;;;;;;;20.05;50.37;101343.16;5017898;28;20153;-58
2023/07/09 01:16:38;;;;;;;6.78;3.33;;;;;;;20.04;50.49;101344.13;5013968;28;20370;-56
2023/07/09 01:19:06;;;;;;;5.78;3.13;;;;;;;20.03;50.30;101345.09;5019212;28;20077;-57
2023/07/09 01:21:34;;;;;;;4.88;2.95;;;;;;;20.01;50.28;101342.56;5022370;28;20144;-55
2023/07/09 01:24:14;;;;;;;4.30;3.42;;;;;;;20.00;50.51;101338.22;5017014;28;20089;-58
2023/07/09 01:26:43;;;;;;;4.78;2.90;;;;;;;19.97;50.44;101347.31;5022585;28;20084;-57
2023/07/09 01:29:12;;;;;;;4.45;2.78;;;;;;;19.96;50.69;101350.16;5020168;28;20046;-56
2023/07/09 01:31:39;;;;;;;5.82;2.97;;;;;;;19.94;50.35;101347.59;5020832;28;20140;-57
2023/07/09 01:34:06;;;;;;;6.00;2.60;;;;;;;19.93;50.59;101355.75;5022148;28;20057;-58
2023/07/09 01:36:34;;;;;;;6.95;3.10;;;;;;;19.91;50.60;101355.88;5024998;28;20067;-59
2023/07/09 01:39:02;;;;;;;6.68;2.95;;;;;;;19.89;50.97;101354.31;5016788;28;20537;-60
2023/07/09 01:41:30;;;;;;;5.28;3.20;;;;;;;19.88;50.62;101352.63;5021647;28;20233;-58
2023/07/09 01:43:57;;;;;;;14.13;3.20;;;;;;;19.86;51.04;101349.25;5015251;28;20923;-55
2023/07/09 01:46:25;;;;;;;5.90;3.25;;;;;;;19.83;51.28;101350.34;5020610;28;20523;-55
2023/07/09 01:48:52;;;;;;;7.32;3.05;;;;;;;19.80;51.12;101339.94;5036532;28;20049;-56
2023/07/09 01:51:20;;;;;;;4.95;3.00;;;;;;;19.80;51.42;101347.09;5018899;28;20104;-56
2023/07/09 01:53:48;;;;;;;4.28;2.70;;;;;;;19.79;51.30;101343.59;5017220;28;20046;-54
2023/07/09 01:56:16;;;;;;;4.63;3.15;;;;;;;19.80;51.48;101339.09;5022331;28;20049;-53
2023/07/09 01:58:44;;;;;;;5.22;2.80;;;;;;;19.76;51.50;101338.50;5022852;28;20402;-57
2023/07/09 02:01:11;;;;;;;8.38;3.67;;;;;;;19.76;51.46;101333.16;5019036;28;20077;-54
2023/07/09 02:03:39;;;;;;;7.85;4.30;;;;;;;19.77;51.15;101337.53;5022624;28;20124;-57
2023/07/09 02:06:09;;;;;;;5.38;2.80;;;;;;;19.77;51.20;101340.22;5017755;28;20132;-56
2023/07/09 02:08:37;;;;;;;6.15;2.70;;;;;;;19.77;51.41;101336.66;5019297;28;20058;-58
2023/07/09 02:11:04;;;;;;;4.18;2.50;;;;;;;19.76;51.41;101338.50;5021066;28;20049;-57
2023/07/09 02:13:32;;;;;;;5.18;3.22;;;;;;;19.76;51.36;101340.31;5020719;28;20057;-58
2023/07/09 02:15:59;;;;;;;5.70;3.05;;;;;;;19.74;51.75;101348.47;5015072;28;20058;-53
2023/07/09 02:18:28;;;;;;;5.30;3.13;;;;;;;19.74;51.93;101345.81;5024436;28;20534;-56
2023/07/09 02:20:56;;;;;;;7.90;2.92;;;;;;;19.71;52.42;101344.25;5021220;28;20128;-53
2023/07/09 02:23:27;;;;;;;4.18;2.53;;;;;;;19.69;52.43;101340.03;5018622;28;20060;-56
2023/07/09 02:25:54;;;;;;;8.48;3.28;;;;;;;19.67;52.57;101350.81;5023602;28;20144;-60
2023/07/09 02:28:22;;;;;;;5.95;3.42;;;;;;;19.65;52.49;101355.47;5020111;28;20042;-60
2023/07/09 02:30:49;;;;;;;4.65;2.80;;;;;;;19.65;52.41;101354.63;5005433;28;20065;-58
2023/07/09 02:33:20;;;;;;;4.70;3.35;;;;;;;19.63;52.42;101346.75;5017343;28;20375;-57
2023/07/09 02:35:47;;;;;;;7.30;3.25;;;;;;;19.61;52.36;101348.69;5015086;28;20057;-54
2023/07/09 02:38:15;;;;;;;6.18;3.55;;;;;;;19.60;52.50;101356.81;5022129;28;20041;-59
2023/07/09 02:40:42;;;;;;;6.53;2.97;;;;;;;19.59;52.36;101357.78;5019723;28;20157;-60
2023/07/09 02:43:09;;;;;;;9.00;7.35;;;;;;;19.59;52.83;101352.44;5021572;28;20153;-57
2023/07/09 02:45:37;;;;;;;9.43;4.45;;;;;;;19.58;52.53;101353.41;5018342;28;20156;-54
2023/07/09 02:48:04;;;;;;;7.40;3.67;;;;;;;19.56;52.80;101353.53;5015852;28;20141;-58
2023/07/09 02:50:32;;;;;;;5.13;3.53;;;;;;;19.55;52.90;101356.34;5015836;28;20061;-57
2023/07/09 02:52:59;;;;;;;6.47;3.40;;;;;;;19.54;53.02;101359.97;5020922;28;20049;-59
2023/07/09 02:55:26;;;;;;;5.32;2.88;;;;;;;19.53;53.08;101364.47;5022230;28;20053;-58
2023/07/09 02:57:54;;;;;;;3.85;2.70;;;;;;;19.53;52.98;101368.97;5022714;28;20057;-58
2023/07/09 03:00:21;;;;;;;4.43;3.28;;;;;;;19.52;53.38;101373.47;5015908;28;20054;-59
2023/07/09 03:02:48;;;;;;;6.15;2.90;;;;;;;19.53;53.36;101364.47;5020583;28;20081;-58
2023/07/09 03:05:16;;;;;;;4.03;3.00;;;;;;;19.60;53.41;101364.81;5020241;28;20141;-58
2023/07/09 03:07:43;;;;;;;4.30;3.13;;;;;;;19.64;53.50;101363.63;5017955;28;20060;-57
2023/07/09 03:10:11;;;;;;;7.50;2.95;;;;;;;19.69;53.78;101364.06;5015262;28;20076;-59
2023/07/09 03:12:38;;;;;;;5.22;3.45;;;;;;;19.70;53.72;101371.09;5024244;28;20152;-58
2023/07/09 03:15:06;;;;;;;5.72;3.08;;;;;;;19.71;53.76;101368.28;5018280;28;20054;-58
2023/07/09 03:17:33;;;;;;;5.20;2.88;;;;;;;19.73;53.48;101371.69;5021072;28;20115;-60
2023/07/09 03:20:02;;;;;;;4.43;2.90;;;;;;;19.74;53.45;101369.84;5020722;28;20152;-59
2023/07/09 03:22:32;;;;;;;8.70;3.22;;;;;;;19.77;53.62;101366.06;5019671;28;20133;-54
2023/07/09 03:25:00;;;;;;;4.38;3.47;;;;;;;19.81;53.71;101370.16;5019213;28;20064;-59
2023/07/09 03:27:28;;;;;;;5.70;3.20;;;;;;;19.80;53.82;101371.16;5014975;28;20540;-55
2023/07/09 03:29:55;;;;;;;9.15;3.50;;;;;;;19.78;53.52;101367.78;5012404;28;20092;-59
2023/07/09 03:32:22;;;;;;;7.32;2.97;;;;;;;19.80;53.67;101372.00;5022296;28;20128;-58
2023/07/09 03:34:49;;;;;;;6.90;2.72;;;;;;;19.83;53.68;101373.56;5025836;28;20532;-56
2023/07/09 03:37:17;;;;;;;6.82;2.95;;;;;;;19.84;54.09;101378.75;5018668;28;20137;-58
2023/07/09 03:39:47;;;;;;;4.93;3.00;;;;;;;19.86;54.08;101378.66;5024176;28;20038;-56
2023/07/09 03:42:14;;;;;;;5.05;3.05;;;;;;;19.86;54.23;101373.31;5026094;28;20068;-60
2023/07/09 03:44:42;;;;;;;6.78;3.17;;;;;;;19.85;54.29;101376.94;5025505;28;20115;-55
2023/07/09 03:47:09;;;;;;;7.60;4.03;;;;;;;19.83;54.20;101376.22;5023779;28;20133;-56
2023/07/09 03:49:38;;;;;;;7.03;3.33;;;;;;;19.81;54.67;101379.03;5022812;28;21028;-54
2023/07/09 03:52:05;;;;;;;7.03;3.90;;;;;;;19.81;54.92;101379.03;5033123;28;20045;-57
2023/07/09 03:54:33;;;;;;;4.80;3.30;;;;;;;19.80;54.93;101389.84;5025016;28;20136;-55
2023/07/09 03:57:00;;;;;;;7.53;2.83;;;;;;;19.77;54.88;101388.31;5025588;28;20137;-57
2023/07/09 03:59:27;;;;;;;8.48;3.83;;;;;;;19.77;55.23;101376.75;5023419;28;20152;-58
2023/07/09 04:01:55;;;;;;;6.25;3.40;;;;;;;19.66;55.75;101383.00;5019554;28;20651;-59
2023/07/09 04:04:22;;;;;;;8.10;3.85;;;;;;;19.61;55.59;101386.09;5025241;28;20140;-58
2023/07/09 04:06:50;;;;;;;5.72;3.47;;;;;;;19.66;55.54;101377.69;5026881;28;20676;-57
2023/07/09 04:09:17;;;;;;;5.18;3.00;;;;;;;19.71;55.72;101388.81;5023843;28;20081;-58
2023/07/09 04:11:45;;;;;;;8.35;3.33;;;;;;;19.76;55.55;101394.59;5026772;28;20144;-54
2023/07/09 04:14:12;;;;;;;6.95;2.90;;;;;;;19.77;55.69;101393.66;5024766;28;20129;-55
2023/07/09 04:16:40;;;;;;;5.45;3.63;;;;;;;19.81;55.87;101394.22;5017434;28;20133;-56
2023/07/09 04:19:07;;;;;;;6.07;3.10;;;;;;;19.82;55.57;101395.94;5018629;28;20128;-54
2023/07/09 04:21:34;;;;;;;6.13;3.10;;;;;;;19.82;55.65;101394.09;5024887;28;20140;-60
2023/07/09 04:24:02;;;;;;;5.43;3.70;;;;;;;19.86;55.67;101403.53;5021964;28;20097;-58
2023/07/09 04:26:29;;;;;;;7.10;3.72;;;;;;;19.88;55.64;101398.06;5023941;28;20514;-55
2023/07/09 04:28:57;;;;;;;8.77;4.07;;;;;;;19.91;55.46;101395.97;5026417;28;20046;-56
2023/07/09 04:31:24;;;;;;;4.65;3.10;;;;;;;19.95;55.26;101393.91;5025812;28;20085;-55
2023/07/09 04:33:52;;;;;;;5.40;3.40;;;;;;;20.00;55.48;101396.16;5020442;28;20141;-58
2023/07/09 04:36:19;;;;;;;5.90;3.22;;;;;;;20.05;55.68;101391.28;5020795;28;20581;-56
2023/07/09 04:38:47;;;;;;;5.18;3.88;;;;;;;20.07;55.40;101392.81;5022342;28;20124;-59
2023/07/09 04:41:14;;;;;;;5.45;3.65;;;;;;;20.11;55.34;101396.06;5019517;28;20057;-54
2023/07/09 04:43:42;;;;;;;7.88;3.65;;;;;;;20.15;55.15;101395.66;5020722;28;20068;-58
2023/07/09 04:46:09;;;;;;;7.20;3.97;;;;;;;20.20;55.11;101396.09;5002900;28;20136;-58
2023/07/09 04:48:38;;;;;;;6.65;3.13;;;;;;;20.24;55.10;101397.53;5018460;28;20061;-61
2023/07/09 04:51:06;;;;;;;6.28;3.63;;;;;;;20.30;54.69;101395.31;5017490;28;20045;-53
2023/07/09 04:53:33;;;;;;;9.88;4.03;;;;;;;20.34;54.53;101396.72;5022278;28;20141;-54
2023/07/09 04:56:04;;;;;;;6.28;3.35;;;;;;;20.36;54.65;101400.13;5019611;28;20049;-56
2023/07/09 04:58:32;;;;;;;4.43;3.33;;;;;;;20.38;54.35;101401.66;5018643;28;20064;-53
2023/07/09 05:00:59;;;;;;;5.63;3.60;;;;;;;20.43;54.05;101395.91;5025183;28;20477;-55
2023/07/09 05:03:27;;;;;;;5.57;3.42;;;;;;;20.51;53.94;101400.63;5021708;28;20478;-57
2023/07/09 05:05:54;;;;;;;4.80;3.22;;;;;;;20.58;53.69;101399.97;5021688;28;20152;-56
2023/07/09 05:08:22;;;;;;;7.57;3.50;;;;;;;20.63;53.29;101397.72;5021894;28;20471;-57
2023/07/09 05:10:51;;;;;;;5.63;3.25;;;;;;;20.68;53.35;101397.31;5014269;28;20561;-58
2023/07/09 05:13:19;;;;;;;4.43;3.60;;;;;;;20.72;53.23;101398.72;5021685;28;20053;-58
2023/07/09 05:15:47;;;;;;;6.70;3.70;;;;;;;20.76;53.14;101396.59;5038001;28;20081;-54
2023/07/09 05:18:15;;;;;;;5.85;3.33;;;;;;;20.81;52.84;101399.72;5021582;28;20132;-57
2023/07/09 05:20:43;;;;;;;5.53;3.38;;;;;;;20.87;52.72;101396.50;5022223;28;20063;-57
2023/07/09 05:23:11;;;;;;;6.70;4.20;;;;;;;20.93;52.58;101403.97;5022052;28;20542;-58
2023/07/09 05:25:38;;;;;;;6.13;3.15;;;;;;;20.97;52.07;101403.53;5026092;28;20155;-58
2023/07/09 05:28:05;;;;;;;4.40;3.20;;;;;;;21.04;52.14;101403.84;5021477;28;20527;-59
2023/07/09 05:30:33;;;;;;;5.30;3.15;;;;;;;21.10;51.56;101405.13;5019841;28;20136;-57
2023/07/09 05:33:03;;;;;;;4.78;2.83;;;;;;;21.16;51.38;101408.09;5021875;28;20145;-57
2023/07/09 05:35:31;;;;;;;4.85;2.80;;;;;;;21.26;51.16;101409.94;5025854;28;20144;-59
2023/07/09 05:37:59;;;;;;;5.70;3.42;;;;;;;21.31;50.75;101402.31;5016134;28;20099;-57
2023/07/09 05:40:27;;;;;;;4.35;3.17;;;;;;;21.35;50.28;101398.41;5017222;28;20107;-56
2023/07/09 05:42:54;;;;;;;4.97;3.30;;;;;;;21.45;50.10;101405.44;5020606;28;20096;-54
2023/07/09 05:45:21;;;;;;;4.88;3.42;;;;;;;21.55;49.60;101409.94;5023678;28;20455;-56
2023/07/09 05:47:48;;;;;;;5.30;3.00;;;;;;;21.60;49.77;101411.19;5024345;28;20149;-56
2023/07/09 05:50:37;;;;;;;5.63;2.90;;;;;;;21.67;49.16;101412.31;5024928;28;20140;-57
2023/07/09 05:53:06;;;;;;;2.97;2.42;;;;;;;21.79;48.89;101406.78;5017108;28;20124;-54
2023/07/09 05:55:33;;;;;;;5.25;2.67;;;;;;;21.88;48.88;101406.75;5020265;28;20061;-58
2023/07/09 05:58:03;;;;;;;4.75;2.70;;;;;;;21.94;48.39;101406.19;5023139;28;20092;-58
2023/07/09 06:00:30;;;;;;;6.82;2.88;;;;;;;22.05;48.65;101402.50;5021112;28;20575;-58
2023/07/09 06:02:58;;;;;;;3.33;2.72;;;;;;;22.15;48.29;101406.00;5020794;28;20088;-57
2023/07/09 06:05:26;;;;;;;3.80;2.88;;;;;;;22.28;47.64;101405.69;5018905;28;20762;-56
2023/07/09 06:07:53;;;;;;;4.50;3.05;;;;;;;22.36;47.63;101408.47;5022001;28;20054;-57
2023/07/09 06:10:21;;;;;;;5.20;3.42;;;;;;;22.47;47.30;101419.03;5024103;28;20163;-56
2023/07/09 06:12:49;;;;;;;11.25;3.42;;;;;;;22.57;47.06;101412.78;5025310;28;20057;-58
2023/07/09 06:15:17;;;;;;;6.50;2.95;;;;;;;22.68;46.66;101408.03;5017038;28;20046;-52
2023/07/09 06:17:45;;;;;;;5.80;3.47;;;;;;;22.81;46.06;101412.19;5024676;28;20073;-61
2023/07/09 06:20:13;;;;;;;4.57;2.90;;;;;;;22.89;46.48;101412.28;5036681;28;20042;-57
2023/07/09 06:22:41;;;;;;;5.70;2.72;;;;;;;23.00;46.18;101414.78;5019776;28;20049;-51
2023/07/09 06:25:08;;;;;;;5.05;3.00;;;;;;;23.08;46.03;101414.88;5017302;28;20078;-59
2023/07/09 06:27:35;;;;;;;3.22;2.75;;;;;;;23.18;45.99;101417.47;5022558;28;20212;-58
2023/07/09 06:30:03;;;;;;;5.13;3.75;;;;;;;23.27;45.81;101415.72;5018607;28;20060;-57
2023/07/09 06:32:31;;;;;;;4.32;2.92;;;;;;;23.37;45.42;101417.34;5024856;28;20105;-56
2023/07/09 06:34:59;;;;;;;4.57;3.30;;;;;;;23.48;45.22;101421.63;5021325;28;20056;-54
2023/07/09 06:37:26;;;;;;;6.20;2.58;;;;;;;23.59;44.91;101420.53;5023440;28;20057;-57
2023/07/09 06:39:53;;;;;;;5.78;3.45;;;;;;;23.68;44.93;101419.63;5024054;28;20133;-58
2023/07/09 06:42:20;;;;;;;6.82;3.45;;;;;;;23.78;44.52;101416.84;5018891;28;20503;-58
2023/07/09 06:44:48;;;;;;;5.70;2.92;;;;;;;23.87;44.64;101416.75;5013934;28;20060;-56
2023/07/09 06:47:15;;;;;;;8.13;3.25;;;;;;;23.97;44.33;101427.41;5021184;28;20128;-56
2023/07/09 06:49:42;;;;;;;5.25;2.97;;;;;;;24.09;44.20;101423.44;5014276;28;20049;-58
2023/07/09 06:52:10;;;;;;;4.35;3.25;;;;;;;24.19;44.26;101426.03;5014797;28;20057;-57
2023/07/09 06:54:38;;;;;;;4.20;3.03;;;;;;;24.28;44.07;101425.06;5015532;28;20057;-59
2023/07/09 06:57:05;;;;;;;7.00;3.03;;;;;;;24.40;43.56;101428.31;5016862;28;20042;-58
2023/07/09 06:59:32;;;;;;;4.65;3.20;;;;;;;24.50;43.57;101421.84;5023283;28;20073;-56
2023/07/09 07:01:59;;;;;;;4.75;3.60;;;;;;;24.52;43.15;101431.59;5021611;28;20083;-57
2023/07/09 07:04:27;;;;;;;3.83;2.88;;;;;;;24.64;43.12;101430.28;5021374;28;20362;-57
2023/07/09 07:06:56;;;;;;;9.77;3.42;;;;;;;24.75;43.22;101430.81;5019118;28;20053;-56
2023/07/09 07:09:23;;;;;;;4.47;3.05;;;;;;;24.79;42.83;101435.91;5024865;28;20057;-58
2023/07/09 07:11:51;;;;;;;4.43;2.90;;;;;;;24.82;42.60;101425.66;5024889;28;20132;-58
2023/07/09 07:14:18;;;;;;;3.83;2.72;;;;;;;24.92;42.26;101429.03;5026389;28;20099;-58
2023/07/09 07:16:46;;;;;;;6.18;3.40;;;;;;;25.02;42.30;101429.72;5020703;28;20071;-56
2023/07/09 07:19:13;;;;;;;4.45;3.00;;;;;;;25.14;42.03;101433.00;5027990;28;20050;-57
2023/07/09 07:21:41;;;;;;;5.15;3.80;;;;;;;25.25;41.89;101432.66;5019918;28;20446;-56
2023/07/09 07:24:08;;;;;;;6.90;2.97;;;;;;;25.33;41.95;101439.06;5028255;28;20075;-55
2023/07/09 07:26:35;;;;;;;4.30;2.92;;;;;;;25.46;41.56;101434.03;5024436;28;20065;-57
2023/07/09 07:29:02;;;;;;;5.28;3.38;;;;;;;25.55;41.73;101427.63;5025475;28;20063;-57
2023/07/09 07:31:30;;;;;;;5.57;3.55;;;;;;;25.63;41.51;101426.78;5021754;28;20179;-57
2023/07/09 07:33:58;;;;;;;6.47;3.50;;;;;;;25.69;40.21;101424.25;5020163;28;20064;-57
2023/07/09 07:36:25;;;;;;;6.07;3.20;;;;;;;25.73;40.64;101435.53;5015592;28;20148;-57
2023/07/09 07:38:57;;;;;;;5.95;3.28;;;;;;;25.84;40.63;101431.66;5018955;28;20036;-59
2023/07/09 07:41:25;;;;;;;4.20;3.33;;;;;;;25.94;40.51;101435.88;5022281;28;20588;-58
2023/07/09 07:43:52;;;;;;;4.95;3.15;;;;;;;26.09;40.48;101435.19;5012668;28;20550;-60
2023/07/09 07:46:20;;;;;;;5.78;3.25;;;;;;;26.18;40.41;101437.69;5015444;28;20136;-58
2023/07/09 07:48:47;;;;;;;3.67;3.15;;;;;;;26.27;40.19;101428.53;5014575;28;20171;-54
2023/07/09 07:51:14;;;;;;;5.63;3.25;;;;;;;26.39;40.27;101431.72;5020707;28;20128;-60
2023/07/09 07:53:42;;;;;;;4.07;3.35;;;;;;;26.50;40.02;101430.53;5021610;28;20060;-57
2023/07/09 07:56:10;;;;;;;6.60;3.40;;;;;;;26.59;39.31;101432.16;5024102;28;20061;-55
2023/07/09 07:58:37;;;;;;;5.90;3.20;;;;;;;26.63;39.46;101432.66;5020963;28;20063;-57
2023/07/09 08:01:04;;;;;;;4.88;3.05;;;;;;;26.69;40.02;101435.47;5020226;28;20066;-57
2023/07/09 08:03:32;;;;;;;7.93;3.30;;;;;;;26.76;39.94;101422.13;5022240;28;20081;-57
2023/07/09 08:06:00;;;;;;;4.35;3.13;;;;;;;26.82;39.74;101431.38;5018536;28;20191;-59
2023/07/09 08:08:29;;;;;;;6.13;4.28;;;;;;;26.88;39.23;101428.78;5015639;28;20053;-57
2023/07/09 08:11:04;;;;;;;7.20;3.47;;;;;;;26.92;39.33;101427.41;5016087;28;20060;-54
2023/07/09 08:13:36;;;;;;;3.88;3.15;;;;;;;27.07;39.10;101432.09;5015529;28;20053;-55
2023/07/09 08:16:07;;;;;;;10.65;4.07;;;;;;;27.21;38.71;101434.88;5017242;28;20140;-55
2023/07/09 08:18:35;;;;;;;6.18;3.45;;;;;;;27.34;38.48;101428.03;5020675;28;20061;-56
2023/07/09 08:21:03;;;;;;;5.63;3.42;;;;;;;27.42;38.78;101427.97;5019861;28;20417;-56
2023/07/09 08:23:33;;;;;;;10.27;3.80;;;;;;;27.51;38.62;101426.88;5022052;28;20699;-54
2023/07/09 08:26:02;;;;;;;4.45;3.25;;;;;;;27.57;38.79;101436.97;5022900;28;20148;-57
2023/07/09 08:28:31;;;;;;;6.32;3.50;;;;;;;27.66;38.43;101432.34;5018334;28;20851;-56
2023/07/09 08:30:59;;;;;;;6.38;3.60;;;;;;;27.64;38.43;101431.66;5022383;28;20544;-57
2023/07/09 08:33:27;;;;;;;5.28;3.50;;;;;;;27.71;38.19;101427.22;5020944;28;20130;-58
2023/07/09 08:35:54;;;;;;;4.22;3.42;;;;;;;27.74;37.90;101427.72;5019153;28;20148;-55
2023/07/09 08:38:22;;;;;;;4.78;3.30;;;;;;;27.81;37.64;101430.53;5018831;28;21031;-57
2023/07/09 08:40:54;;;;;;;4.80;3.17;;;;;;;27.84;37.76;101424.75;5016629;28;20633;-59
2023/07/09 08:43:32;;;;;;;3.25;2.95;;;;;;;27.91;37.92;101428.38;5019639;28;20591;-61
2023/07/09 08:46:10;;;;;;;4.30;3.03;;;;;;;28.07;38.00;101426.56;5019021;28;20057;-57
2023/07/09 08:48:41;;;;;;;4.40;3.10;;;;;;;28.18;37.20;101416.09;5015144;28;20476;-58
2023/07/09 08:51:38;;;;;;;4.20;3.55;;;;;;;28.20;37.33;101429.44;5024399;28;20686;-57
2023/07/09 08:54:14;;;;;;;4.78;2.85;;;;;;;28.29;37.24;101420.22;5017753;28;20064;-59
2023/07/09 08:56:42;;;;;;;5.13;3.30;;;;;;;28.34;36.91;101416.94;4996617;28;20069;-58
2023/07/09 08:59:15;;;;;;;6.75;3.58;;;;;;;28.41;36.89;101417.88;5017507;28;20042;-59
2023/07/09 09:01:51;;;;;;;5.10;3.83;;;;;;;28.52;36.33;101412.84;5040176;28;20445;-58
2023/07/09 09:04:28;;;;;;;6.32;3.40;;;;;;;28.64;35.95;101413.19;5016941;28;20050;-57
2023/07/09 09:07:26;;;;;;;7.18;3.65;;;;;;;28.74;35.87;101418.31;5013742;28;20085;-57
2023/07/09 09:09:58;;;;;;;8.98;4.47;;;;;;;28.87;35.75;101415.75;5020669;28;20073;-56
2023/07/09 09:12:28;;;;;;;6.13;3.92;;;;;;;29.02;35.31;101415.72;5037178;28;21380;-57
2023/07/09 09:14:58;;;;;;;9.45;5.03;;;;;;;29.02;34.93;101411.16;5015095;28;20112;-58
2023/07/09 09:17:28;;;;;;;8.32;4.40;;;;;;;29.10;35.27;101410.19;5015381;28;20095;-51
2023/07/09 09:19:59;;;;;;;8.48;3.75;;;;;;;29.09;35.34;101413.94;5010666;28;20557;-55
2023/07/09 09:22:47;;;;;;;6.88;4.65;;;;;;;29.12;35.27;101410.81;5021021;28;20056;-57
2023/07/09 09:25:17;;;;;;;8.70;4.15;;;;;;;29.09;34.97;101416.66;5016707;28;20544;-53
2023/07/09 09:27:45;;;;;;;6.97;4.32;;;;;;;29.26;35.03;101417.22;5014946;28;20139;-59
2023/07/09 09:30:18;;;;;;;4.68;3.40;;;;;;;29.37;34.68;101413.16;5015143;28;20115;-57
2023/07/09 09:33:09;;;;;;;5.07;3.78;;;;;;;29.39;34.36;101421.94;5013851;28;20066;-57
2023/07/09 09:35:41;;;;;;;6.95;3.65;;;;;;;29.45;34.05;101411.16;5017594;28;20065;-59
2023/07/09 09:38:13;;;;;;;4.45;3.42;;;;;;;29.50;33.81;101424.13;5021305;28;20045;-59
2023/07/09 09:40:40;;;;;;;5.72;3.28;;;;;;;29.47;33.56;101419.09;5020116;28;20143;-57
2023/07/09 09:43:19;;;;;;;4.90;3.47;;;;;;;29.54;34.03;101425.41;5017833;28;20067;-58
2023/07/09 09:45:48;;;;;;;4.60;3.10;;;;;;;29.62;33.57;101421.72;5017219;28;20045;-55
2023/07/09 09:48:29;;;;;;;14.60;3.75;;;;;;;29.81;32.47;101421.06;5018091;28;20507;-52
2023/07/09 09:51:04;;;;;;;4.28;3.60;;;;;;;29.84;32.55;101420.66;5017650;28;20173;-59
2023/07/09 09:53:38;;;;;;;4.07;3.10;;;;;;;29.90;32.97;101417.16;5010116;28;20501;-53
2023/07/09 09:56:19;;;;;;;5.97;3.50;;;;;;;29.99;32.34;101423.25;5017580;28;20072;-59
2023/07/09 09:58:53;;;;;;;3.38;3.08;;;;;;;30.02;32.54;101420.16;5010686;28;20117;-59
2023/07/09 10:01:25;;;;;;;3.78;3.28;;;;;;;30.17;32.27;101420.91;5014335;28;20075;-55
2023/07/09 10:03:56;;;;;;;5.90;3.40;;;;;;;30.39;32.12;101416.19;5014475;28;20137;-59
2023/07/09 10:06:41;;;;;;;7.03;3.78;;;;;;;30.69;30.95;101415.91;5009749;28;20075;-58
2023/07/09 10:09:30;;;;;;;7.35;4.25;;;;;;;30.77;30.07;101415.78;5019233;28;20054;-58
2023/07/09 10:12:08;;;;;;;5.15;3.53;;;;;;;30.79;30.17;101421.00;5020939;28;20145;-55
2023/07/09 10:14:50;;;;;;;10.98;4.47;;;;;;;31.01;30.74;101419.81;5011605;28;20065;-58
2023/07/09 10:17:25;;;;;;;9.77;4.32;;;;;;;31.06;31.16;101417.28;5019451;28;20053;-56
2023/07/09 10:19:57;;;;;;;9.45;4.82;;;;;;;31.06;31.38;101419.19;5010570;28;20092;-59
2023/07/09 10:23:18;;;;;;;8.98;4.22;;;;;;;31.05;31.20;101410.19;5013512;28;21043;-59
2023/07/09 10:26:13;;;;;;;6.80;3.47;;;;;;;31.20;31.38;101410.81;4957676;28;20129;-57
2023/07/09 10:28:55;;;;;;;8.65;4.38;;;;;;;31.47;29.67;101410.88;4954784;28;20494;-57
2023/07/09 10:31:31;;;;;;;7.43;4.50;;;;;;;31.53;30.25;101420.94;5015656;28;20048;-55
2023/07/09 10:34:05;;;;;;;8.25;3.97;;;;;;;31.43;30.43;101420.50;5022615;28;20080;-57
2023/07/09 10:36:50;;;;;;;7.13;3.50;;;;;;;31.43;30.73;101418.66;5016652;28;20052;-58
2023/07/09 10:39:32;;;;;;;6.97;3.72;;;;;;;31.79;30.36;101411.91;5017711;28;20140;-56
2023/07/09 10:42:00;;;;;;;6.82;4.20;;;;;;;31.93;29.61;101415.50;5014342;28;20049;-55
2023/07/09 10:44:35;;;;;;;4.88;3.47;;;;;;;31.91;29.71;101412.97;5017167;28;20115;-58
2023/07/09 10:47:06;;;;;;;4.35;3.38;;;;;;;31.89;29.79;101409.63;5014945;28;20217;-58
2023/07/09 10:49:38;;;;;;;5.70;3.45;;;;;;;31.95;29.99;101418.84;5012168;28;20058;-57
2023/07/09 10:52:07;;;;;;;4.15;3.63;;;;;;;31.97;29.93;101414.00;5017232;28;20041;-59
2023/07/09 10:55:02;;;;;;;6.68;2.97;;;;;;;32.17;30.30;101406.63;5019196;28;20073;-56
2023/07/09 10:57:38;;;;;;;4.38;3.60;;;;;;;32.48;29.63;101403.19;5037478;28;20117;-57
2023/07/09 11:00:11;;;;;;;6.47;3.53;;;;;;;32.74;28.69;101401.41;5017480;28;20515;-58
2023/07/09 11:02:39;;;;;;;10.65;3.92;;;;;;;32.97;29.16;101403.59;5013072;28;20049;-57
2023/07/09 11:05:07;;;;;;;4.50;3.58;;;;;;;33.09;27.85;101399.09;5011675;28;20071;-59
2023/07/09 11:07:45;;;;;;;5.18;3.50;;;;;;;33.18;28.26;101396.94;5009860;28;20060;-57
2023/07/09 11:10:27;;;;;;;4.95;3.72;;;;;;;33.05;28.66;101397.03;5025399;28;20148;-58
2023/07/09 11:13:15;;;;;;;6.00;3.28;;;;;;;33.01;28.30;101404.84;5016809;28;20155;-59
2023/07/09 11:15:45;;;;;;;3.72;3.30;;;;;;;33.06;28.33;101401.47;5012664;28;20080;-58
2023/07/09 11:18:26;;;;;;;5.03;4.00;;;;;;;32.88;28.70;101408.44;5011008;28;20077;-59
2023/07/09 11:21:16;;;;;;;5.07;3.58;;;;;;;32.93;28.97;101399.66;5015842;28;20141;-54
2023/07/09 11:23:45;;;;;;;7.18;3.88;;;;;;;33.04;28.23;101401.66;5011013;28;20041;-58
2023/07/09 11:26:14;;;;;;;7.28;3.75;;;;;;;33.32;28.20;101394.94;5017188;28;20533;-58
2023/07/09 11:28:50;;;;;;;5.53;3.33;;;;;;;33.46;28.03;101393.84;5015633;28;20054;-58
2023/07/09 11:31:31;;;;;;;8.40;4.00;;;;;;;33.55;27.43;101391.63;5019471;28;20124;-56
2023/07/09 11:34:07;;;;;;;5.93;3.40;;;;;;;33.40;27.13;101381.84;5017739;28;20526;-58
2023/07/09 11:36:57;;;;;;;6.97;4.03;;;;;;;33.49;27.47;101379.72;5016326;28;20073;-57
2023/07/09 11:39:30;;;;;;;4.82;4.32;;;;;;;33.36;27.55;101377.06;5010635;28;20069;-58